createdAt,value
2022-09-24T00:02:11.374Z,96089.69
2022-09-24T00:04:41.345Z,96088.28
2022-09-24T00:07:09.737Z,96083.28
2022-09-24T00:09:38.123Z,96086.63
2022-09-24T00:12:06.482Z,96082.59
2022-09-24T00:14:34.806Z,96090.72
2022-09-24T00:17:03.188Z,96090.25
2022-09-24T00:19:31.583Z,96105.25
2022-09-24T00:22:01.300Z,96100.59
2022-09-24T00:24:47.222Z,96094.63
2022-09-24T00:27:15.566Z,96108.25
2022-09-24T00:29:43.958Z,96088.03
2022-09-24T00:32:13.469Z,96080.31
2022-09-24T00:34:41.830Z,96084.44
2022-09-24T00:37:11.963Z,96078.34
2022-09-24T00:39:40.483Z,96075.06
2022-09-24T00:42:10.328Z,96073.59
2022-09-24T00:44:59.379Z,96073.97
2022-09-24T00:47:34.054Z,96083.34
2022-09-24T00:50:08.191Z,96070.59
2022-09-24T00:52:41.829Z,96071.53
2022-09-24T00:55:10.860Z,96068.63
2022-09-24T00:57:40.303Z,96067.00
2022-09-24T01:00:10.025Z,96069.19
2022-09-24T01:02:40.634Z,96064.22
2022-09-24T01:05:10.263Z,96063.13
2022-09-24T01:07:40.002Z,96057.19
2022-09-24T01:10:08.716Z,96055.34
2022-09-24T01:12:43.215Z,96049.91
2022-09-24T01:15:19.710Z,96044.41
2022-09-24T01:17:54.206Z,96048.63
2022-09-24T01:20:52.605Z,96055.94
2022-09-24T01:23:37.536Z,96050.66
2022-09-24T01:26:19.139Z,96042.09
2022-09-24T01:28:59.383Z,96043.97
2022-09-24T01:31:32.794Z,96042.91
2022-09-24T01:34:05.727Z,96036.84
2022-09-24T01:36:35.376Z,96038.50
2022-09-24T01:39:04.758Z,96024.13
2022-09-24T01:41:34.241Z,96025.59
2022-09-24T01:44:05.125Z,96021.53
2022-09-24T01:46:34.918Z,96018.59
2022-09-24T01:49:03.268Z,96018.47
2022-09-24T01:51:35.829Z,96014.25
2022-09-24T01:54:07.190Z,96017.22
2022-09-24T01:56:40.142Z,96015.75
2022-09-24T01:59:13.170Z,96009.84
2022-09-24T02:01:46.694Z,96012.06
2022-09-24T02:04:17.802Z,96005.66
2022-09-24T02:06:48.615Z,96000.19
2022-09-24T02:09:34.332Z,96002.00
2022-09-24T02:12:08.151Z,96001.69
2022-09-24T02:14:40.256Z,95999.59
2022-09-24T02:17:11.182Z,96001.97
2022-09-24T02:19:40.876Z,95998.34
2022-09-24T02:22:12.144Z,95992.56
2022-09-24T02:24:45.799Z,95988.72
2022-09-24T02:27:14.082Z,95993.31
2022-09-24T02:29:42.500Z,95999.16
2022-09-24T02:32:15.894Z,95998.13
2022-09-24T02:34:46.355Z,95982.69
2022-09-24T02:37:16.161Z,95981.50
2022-09-24T02:39:44.518Z,95979.91
2022-09-24T02:42:14.650Z,95975.88
2022-09-24T02:44:42.901Z,95974.13
2022-09-24T02:47:12.542Z,95973.22
2022-09-24T02:49:41.166Z,95980.47
2022-09-24T02:52:10.357Z,95969.13
2022-09-24T02:54:39.003Z,95965.47
2022-09-24T02:57:07.270Z,95963.22
2022-09-24T02:59:35.977Z,95965.41
2022-09-24T03:02:04.618Z,95971.19
2022-09-24T03:04:34.436Z,95964.56
2022-09-24T03:07:03.074Z,95960.53
2022-09-24T03:09:31.454Z,95961.81
2022-09-24T03:12:00.727Z,95961.66
2022-09-24T03:14:29.285Z,95962.44
2022-09-24T03:16:57.561Z,95955.75
2022-09-24T03:19:25.853Z,95959.38
2022-09-24T03:21:55.619Z,95953.03
2022-09-24T03:24:23.903Z,95964.16
2022-09-24T03:26:52.596Z,95967.69
2022-09-24T03:29:41.287Z,95970.91
2022-09-24T03:32:08.645Z,95968.88
2022-09-24T03:34:37.066Z,95961.97
2022-09-24T03:37:07.045Z,95957.06
2022-09-24T03:39:35.365Z,95953.28
2022-09-24T03:42:03.857Z,95961.75
2022-09-24T03:44:32.116Z,95960.22
2022-09-24T03:47:00.365Z,95954.56
2022-09-24T03:49:28.630Z,95955.66
2022-09-24T03:51:57.340Z,95958.19
2022-09-24T03:54:27.033Z,95952.38
2022-09-24T03:56:55.288Z,95957.16
2022-09-24T03:59:23.647Z,95956.28
2022-09-24T04:01:52.130Z,95963.19
2022-09-24T04:04:20.445Z,95946.25
2022-09-24T04:06:48.981Z,95944.91
2022-09-24T04:09:17.360Z,95940.72
2022-09-24T04:11:47.108Z,95950.03
2022-09-24T04:14:15.457Z,95943.72
2022-09-24T04:16:43.754Z,95931.59
2022-09-24T04:19:12.273Z,95933.81
2022-09-24T04:21:40.696Z,95928.41
2022-09-24T04:24:09.136Z,95915.09
2022-09-24T04:26:37.632Z,95924.75
2022-09-24T04:29:08.055Z,95917.09
2022-09-24T04:31:36.466Z,95917.25
2022-09-24T04:34:04.902Z,95919.06
2022-09-24T04:36:33.285Z,95921.66
2022-09-24T04:39:03.364Z,95916.56
2022-09-24T04:41:31.734Z,95928.63
2022-09-24T04:43:59.995Z,95925.22
2022-09-24T04:46:29.815Z,95929.41
2022-09-24T04:48:58.157Z,95930.88
2022-09-24T04:51:26.579Z,95919.00
2022-09-24T04:53:54.995Z,95919.34
2022-09-24T04:56:23.359Z,95921.41
2022-09-24T04:58:52.801Z,95928.38
2022-09-24T05:01:21.635Z,95929.47
2022-09-24T05:03:51.367Z,95926.84
2022-09-24T05:06:19.661Z,95928.81
2022-09-24T05:08:47.994Z,95926.13
2022-09-24T05:11:16.352Z,95922.41
2022-09-24T05:13:44.776Z,95913.34
2022-09-24T05:16:13.146Z,95913.59
2022-09-24T05:18:41.546Z,95908.81
2022-09-24T05:21:11.215Z,95913.94
2022-09-24T05:23:39.488Z,95913.47
2022-09-24T05:26:25.367Z,95914.06
2022-09-24T05:28:53.904Z,95908.03
2022-09-24T05:31:22.328Z,95918.13
2022-09-24T05:33:50.848Z,95918.91
2022-09-24T05:36:20.513Z,95915.84
2022-09-24T05:38:48.767Z,95921.94
2022-09-24T05:41:17.081Z,95925.25
2022-09-24T05:43:45.369Z,95934.00
2022-09-24T05:46:13.853Z,95931.47
2022-09-24T05:48:42.267Z,95930.19
2022-09-24T05:51:10.551Z,95929.88
2022-09-24T05:53:40.300Z,95924.78
2022-09-24T05:56:10.245Z,95921.88
2022-09-24T05:58:38.645Z,95922.53
2022-09-24T06:01:07.173Z,95917.78
2022-09-24T06:06:21.630Z,95901.69
2022-09-24T06:08:51.310Z,95908.50
2022-09-24T06:11:19.576Z,95917.63
2022-09-24T06:13:47.826Z,95925.31
2022-09-24T06:16:16.104Z,95922.66
2022-09-24T06:18:44.998Z,95918.94
2022-09-24T06:21:14.405Z,95921.09
2022-09-24T06:23:45.480Z,95915.91
2022-09-24T06:26:15.337Z,95913.00
2022-09-24T06:28:43.814Z,95905.28
2022-09-24T06:31:12.689Z,95915.78
2022-09-24T06:33:41.421Z,95920.47
2022-09-24T06:36:10.275Z,95921.88
2022-09-24T06:38:40.346Z,95926.03
2022-09-24T06:41:09.649Z,95920.06
2022-09-24T06:43:39.689Z,95921.88
2022-09-24T06:46:08.042Z,95923.66
2022-09-24T06:48:38.219Z,95922.06
2022-09-24T06:51:07.878Z,95928.91
2022-09-24T06:53:36.200Z,95930.38
2022-09-24T06:56:04.630Z,95935.59
2022-09-24T06:58:33.952Z,95925.34
2022-09-24T07:01:04.611Z,95937.00
2022-09-24T07:03:35.065Z,95938.84
2022-09-24T07:06:05.697Z,95940.03
2022-09-24T07:08:34.350Z,95938.38
2022-09-24T07:11:02.691Z,95933.75
2022-09-24T07:13:31.111Z,95934.88
2022-09-24T07:18:31.112Z,95940.41
2022-09-24T07:20:59.402Z,95938.41
2022-09-24T07:23:27.984Z,95939.56
2022-09-24T07:25:57.473Z,95945.03
2022-09-24T07:28:26.281Z,95940.94
2022-09-24T07:30:58.718Z,95943.41
2022-09-24T07:33:27.322Z,95942.84
2022-09-24T07:35:56.987Z,95949.56
2022-09-24T07:38:25.282Z,95948.72
2022-09-24T07:40:58.200Z,95954.06
2022-09-24T07:43:28.555Z,95953.28
2022-09-24T07:45:58.294Z,95951.94
2022-09-24T07:48:26.688Z,95959.22
2022-09-24T07:50:56.384Z,95968.50
2022-09-24T07:53:24.745Z,95965.13
2022-09-24T07:55:53.074Z,95957.16
2022-09-24T07:58:22.016Z,95961.41
2022-09-24T08:00:50.283Z,95963.59
2022-09-24T08:03:18.622Z,95964.13
2022-09-24T08:05:47.303Z,95961.56
2022-09-24T08:08:16.939Z,95964.53
2022-09-24T08:10:45.249Z,95974.97
2022-09-24T08:13:13.875Z,95972.75
2022-09-24T08:15:42.277Z,95973.41
2022-09-24T08:18:10.746Z,95981.56
2022-09-24T08:20:39.590Z,95982.56
2022-09-24T08:23:10.700Z,95977.53
2022-09-24T08:25:40.414Z,95980.72
2022-09-24T08:28:11.244Z,95974.94
2022-09-24T08:33:09.002Z,95974.38
2022-09-24T08:35:38.437Z,95978.97
2022-09-24T08:40:39.057Z,95984.16
2022-09-24T08:43:14.521Z,95987.53
2022-09-24T08:46:06.328Z,95982.56
2022-09-24T08:48:38.189Z,95982.94
2022-09-24T08:51:09.519Z,95973.44
2022-09-24T08:53:45.356Z,95974.53
2022-09-24T08:56:13.859Z,95980.28
2022-09-24T08:58:46.851Z,95983.06
2022-09-24T09:01:22.910Z,95991.34
2022-09-24T09:03:55.909Z,95986.50
2022-09-24T09:06:46.050Z,95982.91
2022-09-24T09:09:17.715Z,95989.69
2022-09-24T09:11:48.916Z,95990.81
2022-09-24T09:14:21.679Z,95981.97
2022-09-24T09:16:52.654Z,95986.28
2022-09-24T09:19:25.025Z,95987.59
2022-09-24T09:21:55.946Z,95990.84
2022-09-24T09:24:29.896Z,95988.09
2022-09-24T09:26:58.745Z,96002.75
2022-09-24T09:29:28.886Z,96004.28
2022-09-24T09:32:04.528Z,96005.22
2022-09-24T09:34:53.310Z,96001.75
2022-09-24T09:37:29.299Z,96000.91
2022-09-24T09:40:10.219Z,95996.31
2022-09-24T09:42:40.476Z,95991.47
2022-09-24T09:45:26.917Z,95999.66
2022-09-24T09:47:58.160Z,95989.47
2022-09-24T09:50:29.204Z,95997.28
2022-09-24T09:52:57.608Z,96003.25
2022-09-24T09:55:28.040Z,96011.50
2022-09-24T09:58:00.083Z,96007.66
2022-09-24T10:00:35.233Z,96010.09
2022-09-24T10:03:04.312Z,96000.84
2022-09-24T10:05:32.834Z,95993.41
2022-09-24T10:08:01.188Z,95996.88
2022-09-24T10:10:30.624Z,95997.63
2022-09-24T10:13:09.076Z,95996.09
2022-09-24T10:15:50.303Z,96014.44
2022-09-24T10:18:26.020Z,96007.88
2022-09-24T10:20:54.680Z,96005.19
2022-09-24T10:23:25.006Z,96009.56
2022-09-24T10:25:57.805Z,96015.19
2022-09-24T10:28:44.040Z,96010.41
2022-09-24T10:31:16.012Z,96015.38
2022-09-24T10:33:46.149Z,96018.63
2022-09-24T10:36:16.613Z,96012.63
2022-09-24T10:38:44.812Z,95997.16
2022-09-24T10:41:18.048Z,96007.09
2022-09-24T10:43:52.433Z,96006.13
2022-09-24T10:46:37.043Z,96000.50
2022-09-24T10:49:10.217Z,96012.41
2022-09-24T10:51:45.814Z,96003.53
2022-09-24T10:54:27.206Z,96014.91
2022-09-24T10:56:58.125Z,96002.81
2022-09-24T10:59:34.803Z,95998.34
2022-09-24T11:02:20.023Z,96006.09
2022-09-24T11:04:51.939Z,95996.84
2022-09-24T11:07:46.770Z,96002.19
2022-09-24T11:10:24.440Z,96005.22
2022-09-24T11:13:03.756Z,96003.72
2022-09-24T11:15:45.720Z,96013.22
2022-09-24T11:18:28.648Z,96011.16
2022-09-24T11:21:03.007Z,96004.56
2022-09-24T11:23:45.333Z,96011.81
2022-09-24T11:26:24.463Z,96009.72
2022-09-24T11:29:06.808Z,96003.72
2022-09-24T11:31:42.922Z,95995.31
2022-09-24T11:34:27.437Z,95999.94
2022-09-24T11:37:06.106Z,96002.72
2022-09-24T11:39:45.459Z,96004.19
2022-09-24T11:42:23.018Z,95995.84
2022-09-24T11:45:16.339Z,95998.69
2022-09-24T11:47:56.576Z,96000.44
2022-09-24T11:50:35.199Z,95989.72
2022-09-24T11:53:07.535Z,95988.34
2022-09-24T11:55:38.612Z,95986.47
2022-09-24T11:58:14.528Z,95975.44
2022-09-24T12:00:46.500Z,95981.59
2022-09-24T12:03:22.279Z,95975.94
2022-09-24T12:06:00.617Z,95973.63
2022-09-24T12:08:32.736Z,95970.69
2022-09-24T12:11:03.873Z,95979.50
2022-09-24T12:16:24.793Z,95980.63
2022-09-24T12:18:57.019Z,95970.81
2022-09-24T12:21:28.827Z,95979.19
2022-09-24T12:24:03.024Z,95984.41
2022-09-24T12:26:40.937Z,95984.06
2022-09-24T12:29:42.434Z,95971.28
2022-09-24T12:32:33.915Z,95985.94
2022-09-24T12:35:09.739Z,95997.81
2022-09-24T12:37:42.119Z,95989.50
2022-09-24T12:40:22.792Z,95980.69
2022-09-24T12:42:52.980Z,95973.66
2022-09-24T12:45:23.579Z,95976.38
2022-09-24T12:47:55.370Z,95964.59
2022-09-24T12:50:27.597Z,95974.47
2022-09-24T12:52:57.975Z,95970.03
2022-09-24T12:55:28.198Z,95953.41
2022-09-24T12:57:58.211Z,95951.25
2022-09-24T13:00:38.691Z,95955.88
2022-09-24T13:03:07.541Z,95950.56
2022-09-24T13:05:48.699Z,95956.53
2022-09-24T13:08:29.117Z,95957.13
2022-09-24T13:11:00.573Z,95948.09
2022-09-24T13:13:31.849Z,95955.84
2022-09-24T13:16:02.999Z,95949.44
2022-09-24T13:18:32.812Z,95951.00
2022-09-24T13:21:03.627Z,95955.31
2022-09-24T13:23:48.926Z,95960.56
2022-09-24T13:26:35.030Z,95956.25
2022-09-24T13:29:04.824Z,95951.31
2022-09-24T13:31:44.905Z,95952.97
2022-09-24T13:34:17.590Z,95953.22
2022-09-24T13:36:50.236Z,95957.09
2022-09-24T13:39:23.440Z,95959.03
2022-09-24T13:41:58.037Z,95958.53
2022-09-24T13:44:30.077Z,95957.91
2022-09-24T13:47:01.250Z,95966.75
2022-09-24T13:49:30.862Z,95965.09
2022-09-24T13:52:08.153Z,95954.31
2022-09-24T13:54:46.642Z,95953.63
2022-09-24T13:57:22.157Z,95946.03
2022-09-24T13:59:50.539Z,95949.53
2022-09-24T14:02:26.564Z,95943.44
2022-09-24T14:04:56.226Z,95943.19
2022-09-24T14:07:24.818Z,95945.03
2022-09-24T14:10:05.751Z,95943.03
2022-09-24T14:12:34.195Z,95944.09
2022-09-24T14:15:06.026Z,95943.16
2022-09-24T14:17:34.393Z,95943.03
2022-09-24T14:20:03.133Z,95952.13
2022-09-24T14:22:35.379Z,95951.47
2022-09-24T14:25:08.736Z,95958.78
2022-09-24T14:27:40.091Z,95954.88
2022-09-24T14:30:16.985Z,95954.63
2022-09-24T14:32:45.632Z,95957.94
2022-09-24T14:35:19.499Z,95950.78
2022-09-24T14:37:50.388Z,95944.66
2022-09-24T14:40:21.840Z,95941.06
2022-09-24T14:42:54.150Z,95934.78
2022-09-24T14:45:24.927Z,95939.75
2022-09-24T14:48:01.540Z,95936.72
2022-09-24T14:50:35.745Z,95936.84
2022-09-24T14:53:13.305Z,95930.28
2022-09-24T14:55:46.456Z,95926.84
2022-09-24T14:58:25.091Z,95931.09
2022-09-24T15:00:56.127Z,95939.00
2022-09-24T15:03:29.267Z,95938.69
2022-09-24T15:06:08.719Z,95940.81
2022-09-24T15:08:37.452Z,95939.25
2022-09-24T15:11:07.850Z,95934.22
2022-09-24T15:13:36.706Z,95938.94
2022-09-24T15:16:07.117Z,95937.16
2022-09-24T15:18:36.209Z,95935.59
2022-09-24T15:21:08.283Z,95936.75
2022-09-24T15:23:36.808Z,95936.03
2022-09-24T15:26:05.332Z,95937.28
2022-09-24T15:28:35.031Z,95938.28
2022-09-24T15:31:03.360Z,95935.91
2022-09-24T15:33:31.671Z,95944.59
2022-09-24T15:36:00.345Z,95938.41
2022-09-24T15:38:28.647Z,95935.69
2022-09-24T15:40:57.002Z,95932.09
2022-09-24T15:43:26.328Z,95935.53
2022-09-24T15:45:55.975Z,95927.34
2022-09-24T15:48:24.393Z,95928.72
2022-09-24T15:50:52.708Z,95930.06
2022-09-24T15:53:23.830Z,95933.09
2022-09-24T15:55:54.403Z,95933.59
2022-09-24T15:58:23.013Z,95933.78
2022-09-24T16:00:51.719Z,95924.63
2022-09-24T16:03:24.839Z,95920.84
2022-09-24T16:05:53.846Z,95926.72
2022-09-24T16:08:22.500Z,95921.25
2022-09-24T16:10:50.992Z,95913.97
2022-09-24T16:13:20.158Z,95919.41
2022-09-24T16:15:49.220Z,95914.28
2022-09-24T16:18:18.752Z,95918.78
2022-09-24T16:20:48.441Z,95914.88
2022-09-24T16:23:17.754Z,95910.72
2022-09-24T16:25:55.801Z,95915.25
2022-09-24T16:28:24.681Z,95909.97
2022-09-24T16:30:53.172Z,95917.44
2022-09-24T16:33:21.823Z,95911.91
2022-09-24T16:35:51.762Z,95910.69
2022-09-24T16:38:22.935Z,95914.66
2022-09-24T16:41:00.707Z,95923.59
2022-09-24T16:43:29.132Z,95915.16
2022-09-24T16:46:03.788Z,95917.59
2022-09-24T16:48:32.632Z,95912.19
2022-09-24T16:51:06.690Z,95912.72
2022-09-24T16:53:35.277Z,95928.72
2022-09-24T16:56:05.245Z,95927.31
2022-09-24T16:58:33.768Z,95930.63
2022-09-24T17:01:05.084Z,95927.59
2022-09-24T17:03:33.683Z,95930.66
2022-09-24T17:06:02.179Z,95931.81
2022-09-24T17:08:47.395Z,95938.19
2022-09-24T17:11:15.712Z,95926.50
2022-09-24T17:13:44.308Z,95927.31
2022-09-24T17:16:12.726Z,95926.63
2022-09-24T17:18:41.201Z,95930.13
2022-09-24T17:21:11.480Z,95937.97
2022-09-24T17:23:41.336Z,95937.97
2022-09-24T17:26:11.732Z,95939.44
2022-09-24T17:28:41.917Z,95940.50
2022-09-24T17:31:11.324Z,95936.16
2022-09-24T17:33:44.273Z,95937.69
2022-09-24T17:36:14.313Z,95938.03
2022-09-24T17:38:44.418Z,95936.28
2022-09-24T17:41:13.979Z,95937.34
2022-09-24T17:46:30.317Z,95944.00
2022-09-24T17:49:00.144Z,95937.69
2022-09-24T17:51:30.378Z,95938.28
2022-09-24T17:54:01.529Z,95942.59
2022-09-24T17:56:32.116Z,95940.72
2022-09-24T17:59:00.475Z,95945.03
2022-09-24T18:01:33.658Z,95944.22
2022-09-24T18:04:02.662Z,95941.81
2022-09-24T18:06:33.077Z,95946.34
2022-09-24T18:09:03.851Z,95950.66
2022-09-24T18:11:33.137Z,95946.56
2022-09-24T18:14:03.389Z,95949.13
2022-09-24T18:16:33.148Z,95965.31
2022-09-24T18:19:02.843Z,95954.94
2022-09-24T18:21:31.543Z,95954.94
2022-09-24T18:24:02.838Z,95956.72
2022-09-24T18:26:34.264Z,95947.03
2022-09-24T18:29:05.886Z,95946.22
2022-09-24T18:31:35.307Z,95951.13
2022-09-24T18:34:06.798Z,95952.50
2022-09-24T18:36:37.933Z,95959.69
2022-09-24T18:39:11.550Z,95954.72
2022-09-24T18:41:41.091Z,95962.72
2022-09-24T18:44:11.061Z,95965.16
2022-09-24T18:46:39.610Z,95968.69
2022-09-24T18:49:09.283Z,95974.19
2022-09-24T18:51:39.332Z,95976.78
2022-09-24T18:54:11.917Z,95970.34
2022-09-24T18:56:40.424Z,95978.41
2022-09-24T18:59:12.754Z,95972.38
2022-09-24T19:01:42.316Z,95978.38
2022-09-24T19:04:12.525Z,95981.69
2022-09-24T19:06:42.786Z,95982.00
2022-09-24T19:09:14.441Z,95980.22
2022-09-24T19:11:42.847Z,95978.97
2022-09-24T19:14:12.822Z,95976.13
2022-09-24T19:16:41.491Z,95980.81
2022-09-24T19:19:11.271Z,95980.34
2022-09-24T19:21:41.319Z,95979.91
2022-09-24T19:24:09.940Z,95973.16
2022-09-24T19:26:39.695Z,95967.47
2022-09-24T19:29:08.090Z,95976.31
2022-09-24T19:31:37.627Z,95974.19
2022-09-24T19:34:06.945Z,95979.47
2022-09-24T19:36:43.731Z,95982.72
2022-09-24T19:39:13.797Z,95973.50
2022-09-24T19:41:44.005Z,95978.31
2022-09-24T19:44:13.027Z,95974.81
2022-09-24T19:46:41.626Z,95971.31
2022-09-24T19:49:10.068Z,95970.69
2022-09-24T19:51:38.678Z,95975.97
2022-09-24T19:54:08.201Z,95979.31
2022-09-24T19:56:36.653Z,95973.84
2022-09-24T19:59:08.066Z,95966.22
2022-09-24T20:04:07.112Z,95971.16
2022-09-24T20:06:36.992Z,95971.94
2022-09-24T20:09:05.542Z,95966.16
2022-09-24T20:11:33.975Z,95963.84
2022-09-24T20:14:02.534Z,95974.06
2022-09-24T20:16:33.539Z,95965.16
2022-09-24T20:19:02.908Z,95961.25
2022-09-24T20:21:34.868Z,95960.88
2022-09-24T20:24:04.369Z,95959.47
2022-09-24T20:26:50.906Z,95957.56
2022-09-24T20:29:22.064Z,95965.06
2022-09-24T20:31:53.129Z,95966.50
2022-09-24T20:34:23.152Z,95959.25
2022-09-24T20:36:52.108Z,95963.66
2022-09-24T20:39:20.732Z,95968.03
2022-09-24T20:41:50.227Z,95966.56
2022-09-24T20:44:18.958Z,95969.25
2022-09-24T20:46:47.554Z,95964.25
2022-09-24T20:49:22.766Z,95966.13
2022-09-24T20:51:56.556Z,95966.13
2022-09-24T20:54:26.441Z,95962.69
2022-09-24T20:56:54.886Z,95959.69
2022-09-24T20:59:25.067Z,95958.50
2022-09-24T21:01:53.999Z,95958.66
2022-09-24T21:04:24.350Z,95958.88
2022-09-24T21:06:52.689Z,95954.41
2022-09-24T21:09:21.094Z,95955.88
2022-09-24T21:11:50.518Z,95949.19
2022-09-24T21:14:19.274Z,95953.38
2022-09-24T21:16:47.898Z,95952.16
2022-09-24T21:19:16.462Z,95956.66
2022-09-24T21:21:47.255Z,95953.78
2022-09-24T21:24:16.423Z,95962.03
2022-09-24T21:26:45.601Z,95957.66
2022-09-24T21:29:16.337Z,95960.41
2022-09-24T21:31:46.238Z,95961.91
2022-09-24T21:34:16.060Z,95962.09
2022-09-24T21:36:46.644Z,95965.16
2022-09-24T21:39:15.761Z,95964.94
2022-09-24T21:41:44.681Z,95962.63
2022-09-24T21:44:15.702Z,95967.22
2022-09-24T21:46:44.287Z,95964.34
2022-09-24T21:49:12.898Z,95966.84
2022-09-24T21:51:41.974Z,95963.25
2022-09-24T21:54:16.198Z,95958.13
2022-09-24T21:56:45.070Z,95962.97
2022-09-24T21:59:30.908Z,95962.38
2022-09-24T22:01:59.267Z,95954.63
2022-09-24T22:04:27.833Z,95963.31
2022-09-24T22:06:56.289Z,95962.75
2022-09-24T22:09:26.828Z,95960.66
2022-09-24T22:11:55.890Z,95959.66
2022-09-24T22:14:24.381Z,95959.19
2022-09-24T22:16:52.782Z,95958.25
2022-09-24T22:19:21.320Z,95950.69
2022-09-24T22:21:49.639Z,95943.00
2022-09-24T22:24:17.911Z,95954.13
2022-09-24T22:26:48.328Z,95956.97
2022-09-24T22:29:16.786Z,95950.78
2022-09-24T22:31:45.154Z,95954.38
2022-09-24T22:34:31.034Z,95951.53
2022-09-24T22:36:59.341Z,95942.84
2022-09-24T22:39:27.615Z,95946.97
2022-09-24T22:41:57.286Z,95947.22
2022-09-24T22:44:25.573Z,95945.97
2022-09-24T22:46:53.884Z,95939.06
2022-09-24T22:49:22.539Z,95937.88
2022-09-24T22:51:51.285Z,95936.47
2022-09-24T22:54:19.565Z,95930.75
2022-09-24T22:56:47.860Z,95931.09
2022-09-24T22:59:17.517Z,95927.50
2022-09-24T23:01:46.027Z,95924.31
2022-09-24T23:04:15.119Z,95926.03
2022-09-24T23:06:44.160Z,95923.63
2022-09-24T23:09:12.832Z,95925.63
2022-09-24T23:11:41.489Z,95929.44
2022-09-24T23:14:13.426Z,95927.44
2022-09-24T23:16:43.872Z,95927.25
2022-09-24T23:19:15.035Z,95925.03
2022-09-24T23:21:43.478Z,95931.75
2022-09-24T23:24:15.173Z,95930.94
2022-09-24T23:26:43.657Z,95931.19
2022-09-24T23:29:13.022Z,95936.91
2022-09-24T23:31:42.914Z,95936.09
2022-09-24T23:34:13.111Z,95931.59
2022-09-24T23:36:41.510Z,95933.97
2022-09-24T23:39:09.939Z,95937.13
2022-09-24T23:41:38.444Z,95940.28
2022-09-24T23:44:06.927Z,95935.66
2022-09-24T23:46:35.294Z,95936.47
2022-09-24T23:49:05.393Z,95933.38
2022-09-24T23:51:33.726Z,95942.34
2022-09-24T23:54:02.092Z,95942.56
2022-09-24T23:56:30.451Z,95939.06
2022-09-24T23:58:59.003Z,95933.53
